Terminal Aerodrome Forecast
Issued by NWS Melbourne, FL

Home | Current Version | Previous Version | Text Only | Print | Product List | Glossary On
Versions: 1 2 3 4 5 6 7 8 9 10 11 12 13 14 15 16 17 18 19 20 21 22 23 24 25
000
FTUS42 KMLB 302331
TAFMCO
TAF
KMCO 302331Z 3100/3124 18005KT P6SM VCTS SCT030CB SCT120 OVC250
      TEMPO 3100/3104 5SM SHRA BKN030
     FM310400 13006KT P6SM VCSH SCT020 BKN050 OVC250
     FM310600 16005KT P6SM VCSH SCT020 BKN080 OVC250
     FM311300 19007KT P6SM SCT020 BKN100 OVC250
      TEMPO 3115/3118 2SM TSRA BKN020CB
     FM311800 20005KT P6SM VCTS SCT020CB BKN040 OVC150=

USA.gov is the U.S. government's official web portal to all federal, state and local government web resources and services.